createdAt,value
2022-12-25T00:01:51.248Z,6.47
2022-12-25T00:04:53.695Z,6.63
2022-12-25T00:07:56.037Z,6.83
2022-12-25T00:11:02.693Z,7.15
2022-12-25T00:14:04.925Z,6.85
2022-12-25T00:17:07.145Z,6.95
2022-12-25T00:20:10.170Z,7.17
2022-12-25T00:23:12.484Z,6.93
2022-12-25T00:26:16.369Z,7.80
2022-12-25T00:29:18.540Z,6.72
2022-12-25T00:32:20.897Z,8.10
2022-12-25T00:35:23.211Z,7.47
2022-12-25T00:38:26.010Z,8.07
2022-12-25T00:41:46.870Z,8.35
2022-12-25T00:44:49.626Z,8.60
2022-12-25T00:47:51.902Z,8.13
2022-12-25T00:50:55.247Z,8.07
2022-12-25T00:53:57.505Z,8.03
2022-12-25T00:56:59.733Z,7.72
2022-12-25T01:00:01.892Z,7.03
2022-12-25T01:03:04.752Z,6.70
2022-12-25T01:06:07.846Z,6.72
2022-12-25T01:09:28.949Z,7.97
2022-12-25T01:12:31.763Z,8.63
2022-12-25T01:15:34.092Z,8.20
2022-12-25T01:18:38.120Z,8.23
2022-12-25T01:21:40.560Z,8.05
2022-12-25T01:24:44.057Z,8.77
2022-12-25T01:27:46.797Z,8.95
2022-12-25T01:30:49.631Z,9.70
2022-12-25T01:33:52.860Z,9.38
2022-12-25T01:36:55.137Z,9.10
2022-12-25T01:39:57.439Z,9.23
2022-12-25T01:42:59.671Z,9.18
2022-12-25T01:46:04.037Z,11.32
2022-12-25T01:49:20.909Z,14.65
2022-12-25T01:52:25.194Z,15.30
2022-12-25T01:55:27.794Z,13.20
2022-12-25T01:58:30.466Z,11.68
2022-12-25T02:01:32.733Z,11.70
2022-12-25T02:04:55.299Z,10.23
2022-12-25T02:08:04.374Z,8.20
2022-12-25T02:11:28.453Z,6.47
2022-12-25T02:14:32.267Z,6.25
2022-12-25T02:17:34.497Z,5.63
2022-12-25T02:20:55.652Z,6.97
2022-12-25T02:24:21.783Z,5.18
2022-12-25T02:27:23.932Z,5.00
2022-12-25T02:30:26.826Z,5.90
2022-12-25T02:33:50.695Z,13.07
2022-12-25T02:37:07.754Z,14.77
2022-12-25T02:40:12.953Z,14.77
2022-12-25T02:43:36.815Z,16.03
2022-12-25T02:46:57.735Z,15.40
2022-12-25T02:50:19.268Z,13.93
2022-12-25T02:53:40.273Z,15.13
2022-12-25T02:57:02.966Z,14.23
2022-12-25T03:00:24.817Z,14.97
2022-12-25T03:03:47.924Z,13.68
2022-12-25T03:06:58.494Z,14.43
2022-12-25T03:10:21.999Z,14.70
2022-12-25T03:13:27.812Z,15.33
2022-12-25T03:16:49.111Z,15.00
2022-12-25T03:20:10.082Z,15.02
2022-12-25T03:23:32.501Z,13.35
2022-12-25T03:26:53.073Z,12.70
2022-12-25T03:30:13.997Z,12.73
2022-12-25T03:33:43.230Z,12.20
2022-12-25T03:37:07.556Z,12.10
2022-12-25T03:41:01.039Z,11.40
2022-12-25T03:44:39.286Z,10.27
2022-12-25T03:47:53.741Z,10.50
2022-12-25T03:51:17.107Z,11.20
2022-12-25T03:54:40.066Z,11.25
2022-12-25T03:58:01.128Z,10.55
2022-12-25T04:01:22.240Z,10.60
2022-12-25T04:04:43.382Z,10.57
2022-12-25T04:08:04.200Z,9.77
2022-12-25T04:11:24.729Z,9.18
2022-12-25T04:14:45.500Z,9.07
2022-12-25T04:18:06.179Z,8.10
2022-12-25T04:21:27.176Z,7.38
2022-12-25T04:24:48.223Z,10.90
2022-12-25T04:28:09.247Z,13.35
2022-12-25T04:31:30.040Z,12.32
2022-12-25T04:34:50.888Z,12.88
2022-12-25T04:37:53.149Z,11.03
2022-12-25T04:40:55.300Z,10.60
2022-12-25T04:43:57.548Z,11.32
2022-12-25T04:46:59.887Z,10.50
2022-12-25T04:50:02.129Z,9.73
2022-12-25T04:53:04.281Z,9.30
2022-12-25T04:56:06.735Z,8.27
2022-12-25T04:59:09.283Z,8.20
2022-12-25T05:02:12.048Z,8.65
2022-12-25T05:05:14.354Z,8.65
2022-12-25T05:08:16.618Z,10.90
2022-12-25T05:11:18.914Z,13.83
2022-12-25T05:14:21.147Z,14.48
2022-12-25T05:17:23.575Z,13.32
2022-12-25T05:20:25.833Z,14.13
2022-12-25T05:23:28.041Z,12.63
2022-12-25T05:26:30.380Z,13.00
2022-12-25T05:29:32.700Z,11.98
2022-12-25T05:32:35.005Z,12.52
2022-12-25T05:35:38.166Z,11.35
2022-12-25T05:38:40.394Z,11.70
2022-12-25T05:41:42.580Z,10.60
2022-12-25T05:44:44.727Z,11.80
2022-12-25T05:47:46.929Z,12.20
2022-12-25T05:50:49.295Z,11.38
2022-12-25T05:53:51.885Z,11.47
2022-12-25T05:56:54.142Z,13.23
2022-12-25T05:59:56.431Z,13.27
2022-12-25T06:02:58.856Z,14.82
2022-12-25T06:06:02.749Z,14.13
2022-12-25T06:09:04.956Z,13.10
2022-12-25T06:12:07.241Z,12.87
2022-12-25T06:15:09.845Z,13.07
2022-12-25T06:18:12.044Z,12.80
2022-12-25T06:21:15.469Z,13.38
2022-12-25T06:24:21.179Z,13.23
2022-12-25T06:27:23.837Z,13.87
2022-12-25T06:30:26.242Z,16.27
2022-12-25T06:33:28.479Z,17.25
2022-12-25T06:36:30.782Z,17.95
2022-12-25T06:39:33.068Z,18.57
2022-12-25T06:42:35.243Z,19.87
2022-12-25T06:45:37.592Z,23.85
2022-12-25T06:48:40.439Z,26.25
2022-12-25T06:51:42.679Z,23.13
2022-12-25T06:54:44.953Z,24.77
2022-12-25T06:57:47.170Z,20.70
2022-12-25T07:00:49.478Z,21.58
2022-12-25T07:03:53.642Z,23.02
2022-12-25T07:06:55.947Z,19.95
2022-12-25T07:09:58.197Z,18.60
2022-12-25T07:13:00.405Z,19.30
2022-12-25T07:16:03.807Z,18.73
2022-12-25T07:19:06.289Z,17.98
2022-12-25T07:22:08.880Z,17.67
2022-12-25T07:25:11.150Z,15.37
2022-12-25T07:28:13.392Z,15.77
2022-12-25T07:31:16.751Z,15.55
2022-12-25T07:34:19.031Z,16.73
2022-12-25T07:37:21.589Z,17.23
2022-12-25T07:40:23.994Z,18.07
2022-12-25T07:43:26.472Z,16.33
2022-12-25T07:46:28.745Z,15.68
2022-12-25T07:49:31.179Z,15.07
2022-12-25T07:52:36.678Z,14.07
2022-12-25T07:55:43.714Z,15.10
2022-12-25T07:58:46.540Z,15.27
2022-12-25T08:01:50.208Z,15.40
2022-12-25T08:04:52.738Z,16.55
2022-12-25T08:07:57.945Z,16.58
2022-12-25T08:11:00.560Z,16.07
2022-12-25T08:14:05.309Z,16.80
2022-12-25T08:17:07.743Z,17.90
2022-12-25T08:20:10.368Z,16.25
2022-12-25T08:23:12.714Z,19.63
2022-12-25T08:26:20.199Z,21.33
2022-12-25T08:29:22.387Z,21.27
2022-12-25T08:32:24.728Z,20.25
2022-12-25T08:35:27.041Z,20.30
2022-12-25T08:38:29.333Z,21.42
2022-12-25T08:41:31.836Z,19.58
2022-12-25T08:44:34.074Z,20.80
2022-12-25T08:47:36.362Z,23.02
2022-12-25T08:50:41.150Z,23.77
2022-12-25T08:53:44.435Z,21.90
2022-12-25T08:56:47.770Z,23.30
2022-12-25T08:59:50.073Z,23.33
2022-12-25T09:02:53.045Z,22.77
2022-12-25T09:05:55.608Z,22.33
2022-12-25T09:08:57.879Z,22.63
2022-12-25T09:12:00.162Z,22.23
2022-12-25T09:15:02.748Z,21.20
2022-12-25T09:18:05.300Z,22.27
2022-12-25T09:21:08.326Z,24.63
2022-12-25T09:24:10.635Z,23.83
2022-12-25T09:27:13.170Z,22.88
2022-12-25T09:30:15.437Z,22.30
2022-12-25T09:33:18.070Z,21.75
2022-12-25T09:36:23.443Z,20.13
2022-12-25T09:39:25.890Z,20.48
2022-12-25T09:42:31.472Z,19.27
2022-12-25T09:45:38.249Z,20.33
2022-12-25T09:48:43.144Z,20.65
2022-12-25T09:51:46.027Z,21.80
2022-12-25T09:54:54.195Z,20.48
2022-12-25T09:57:58.000Z,20.05
2022-12-25T10:01:03.845Z,20.63
2022-12-25T10:04:15.177Z,20.00
2022-12-25T10:07:36.161Z,20.70
2022-12-25T10:10:50.945Z,20.98
2022-12-25T10:13:53.196Z,21.15
2022-12-25T10:17:15.320Z,22.43
2022-12-25T10:20:29.802Z,22.30
2022-12-25T10:23:40.545Z,21.20
2022-12-25T10:26:43.055Z,20.38
2022-12-25T10:29:47.658Z,20.58
2022-12-25T10:32:50.079Z,19.53
2022-12-25T10:35:52.359Z,18.13
2022-12-25T10:38:55.560Z,17.65
2022-12-25T10:42:16.675Z,17.15
2022-12-25T10:45:18.997Z,16.50
2022-12-25T10:48:22.869Z,14.03
2022-12-25T10:51:35.704Z,14.30
2022-12-25T10:54:37.938Z,12.98
2022-12-25T10:57:46.403Z,13.05
2022-12-25T11:00:53.254Z,10.35
2022-12-25T11:03:55.580Z,10.20
2022-12-25T11:06:59.829Z,9.85
2022-12-25T11:10:05.932Z,10.20
2022-12-25T11:13:16.284Z,9.85
2022-12-25T11:16:38.586Z,9.55
2022-12-25T11:19:51.463Z,9.80
2022-12-25T11:22:53.763Z,9.13
2022-12-25T11:25:56.363Z,8.27
2022-12-25T11:28:59.181Z,8.88
2022-12-25T11:32:02.443Z,8.27
2022-12-25T11:35:10.964Z,8.87
2022-12-25T11:38:13.273Z,8.65
2022-12-25T11:41:20.527Z,8.88
2022-12-25T11:44:31.416Z,8.65
2022-12-25T11:47:47.720Z,8.73
2022-12-25T11:50:51.979Z,7.87
2022-12-25T11:53:56.030Z,7.50
2022-12-25T11:56:59.314Z,7.35
2022-12-25T12:00:10.464Z,6.85
2022-12-25T12:03:12.775Z,7.43
2022-12-25T12:06:30.325Z,7.20
2022-12-25T12:09:38.654Z,6.57
2022-12-25T12:12:48.246Z,7.22
2022-12-25T12:15:51.450Z,8.38
2022-12-25T12:18:53.719Z,8.73
2022-12-25T12:21:57.177Z,8.10
2022-12-25T12:25:01.556Z,8.68
2022-12-25T12:28:05.812Z,9.32
2022-12-25T12:31:08.563Z,7.88
2022-12-25T12:34:26.107Z,7.43
2022-12-25T12:37:30.803Z,7.70
2022-12-25T12:40:37.666Z,7.97
2022-12-25T12:43:40.026Z,8.05
2022-12-25T12:46:51.256Z,7.05
2022-12-25T12:50:00.996Z,7.32
2022-12-25T12:53:17.078Z,7.73
2022-12-25T12:56:20.255Z,7.70
2022-12-25T12:59:23.108Z,8.85
2022-12-25T13:02:50.160Z,9.57
2022-12-25T13:06:04.133Z,9.73
2022-12-25T13:09:18.675Z,9.83
2022-12-25T13:12:22.350Z,10.82
2022-12-25T13:15:30.068Z,10.20
2022-12-25T13:18:33.631Z,10.63
2022-12-25T13:21:35.935Z,10.40
2022-12-25T13:24:38.146Z,9.37
2022-12-25T13:27:40.460Z,9.82
2022-12-25T13:30:42.849Z,8.80
2022-12-25T13:33:46.387Z,8.55
2022-12-25T13:36:48.866Z,8.45
2022-12-25T13:39:59.186Z,9.47
2022-12-25T13:43:01.881Z,8.40
2022-12-25T13:46:04.437Z,8.25
2022-12-25T13:49:13.334Z,9.38
2022-12-25T13:52:21.260Z,8.52
2022-12-25T13:55:23.575Z,9.17
2022-12-25T13:58:25.793Z,8.65
2022-12-25T14:01:28.679Z,8.52
2022-12-25T14:04:30.999Z,8.93
2022-12-25T14:07:34.875Z,8.60
2022-12-25T14:10:38.304Z,9.63
2022-12-25T14:13:41.863Z,9.13
2022-12-25T14:16:48.818Z,9.63
2022-12-25T14:20:05.626Z,10.13
2022-12-25T14:23:14.722Z,10.73
2022-12-25T14:26:24.349Z,11.53
2022-12-25T14:29:28.619Z,10.75
2022-12-25T14:32:38.258Z,11.82
2022-12-25T14:35:40.553Z,11.57
2022-12-25T14:38:44.230Z,11.93
2022-12-25T14:41:52.403Z,11.73
2022-12-25T14:45:03.920Z,10.73
2022-12-25T14:48:24.553Z,11.00
2022-12-25T14:51:27.813Z,13.23
2022-12-25T14:54:30.041Z,14.68
2022-12-25T14:57:39.224Z,15.17
2022-12-25T15:00:41.979Z,15.88
2022-12-25T15:03:44.345Z,16.15
2022-12-25T15:07:00.511Z,17.67
2022-12-25T15:13:30.240Z,21.80
2022-12-25T15:16:40.612Z,22.02
2022-12-25T15:19:43.185Z,23.25
2022-12-25T15:23:17.879Z,18.98
2022-12-25T15:26:15.190Z,15.60
2022-12-25T15:29:23.671Z,13.43
2022-12-25T15:32:39.806Z,12.02
2022-12-25T15:35:44.399Z,10.27
2022-12-25T15:38:46.720Z,10.68
2022-12-25T15:42:08.141Z,11.02
2022-12-25T15:45:17.262Z,11.37
2022-12-25T15:48:19.432Z,11.32
2022-12-25T15:51:22.314Z,11.85
2022-12-25T15:54:24.486Z,12.68
2022-12-25T15:57:26.830Z,11.23
2022-12-25T16:00:29.169Z,9.93
2022-12-25T16:03:31.873Z,9.05
2022-12-25T16:06:34.205Z,9.45
2022-12-25T16:09:36.430Z,10.65
2022-12-25T16:12:39.202Z,11.10
2022-12-25T16:15:41.532Z,10.87
2022-12-25T16:18:47.725Z,10.25
2022-12-25T16:21:50.363Z,10.63
2022-12-25T16:24:52.845Z,10.35
2022-12-25T16:27:55.060Z,11.18
2022-12-25T16:30:57.362Z,11.13
2022-12-25T16:33:59.819Z,11.43
2022-12-25T16:37:02.056Z,12.38
2022-12-25T16:40:04.500Z,12.30
2022-12-25T16:43:06.874Z,13.20
2022-12-25T16:46:16.566Z,12.97
2022-12-25T16:49:18.894Z,16.27
2022-12-25T16:52:21.129Z,19.60
2022-12-25T16:55:29.386Z,15.30
2022-12-25T16:58:32.147Z,13.48
2022-12-25T17:01:34.454Z,13.50
2022-12-25T17:04:36.842Z,13.27
2022-12-25T17:07:39.572Z,12.73
2022-12-25T17:10:42.691Z,11.57
2022-12-25T17:13:48.331Z,14.05
2022-12-25T17:16:51.222Z,13.30
2022-12-25T17:19:53.610Z,13.98
2022-12-25T17:22:56.267Z,14.55
2022-12-25T17:26:02.102Z,15.88
2022-12-25T17:29:04.326Z,15.48
2022-12-25T17:32:07.419Z,17.00
2022-12-25T17:35:09.823Z,16.83
2022-12-25T17:38:12.096Z,17.90
2022-12-25T17:41:15.154Z,16.60
2022-12-25T17:44:18.109Z,17.15
2022-12-25T17:47:20.390Z,14.67
2022-12-25T17:50:25.516Z,14.35
2022-12-25T17:53:28.065Z,15.43
2022-12-25T17:56:30.797Z,14.05
2022-12-25T17:59:33.075Z,14.55
2022-12-25T18:02:35.696Z,14.77
2022-12-25T18:05:38.076Z,14.15
2022-12-25T18:08:41.040Z,14.25
2022-12-25T18:11:43.868Z,13.52
2022-12-25T18:14:46.118Z,12.10
2022-12-25T18:17:48.351Z,11.77
2022-12-25T18:20:52.925Z,11.02
2022-12-25T18:23:55.404Z,10.48
2022-12-25T18:26:57.779Z,11.30
2022-12-25T18:30:00.077Z,10.75
2022-12-25T18:33:02.277Z,10.63
2022-12-25T18:36:04.679Z,11.23
2022-12-25T18:39:06.987Z,11.40
2022-12-25T18:42:27.721Z,10.55
2022-12-25T18:45:30.099Z,10.25
2022-12-25T18:48:33.580Z,9.93
2022-12-25T18:51:37.194Z,11.32
2022-12-25T18:54:39.731Z,11.95
2022-12-25T18:57:42.066Z,13.23
2022-12-25T19:00:44.336Z,11.82
2022-12-25T19:03:46.635Z,11.40
2022-12-25T19:06:49.961Z,12.20
2022-12-25T19:09:52.555Z,12.05
2022-12-25T19:12:54.897Z,11.82
2022-12-25T19:15:58.480Z,12.60
2022-12-25T19:19:01.651Z,11.70
2022-12-25T19:22:03.959Z,11.60
2022-12-25T19:25:06.570Z,11.65
2022-12-25T19:28:08.799Z,11.93
2022-12-25T19:31:11.809Z,11.38
2022-12-25T19:34:14.266Z,10.70
2022-12-25T19:37:16.443Z,10.27
2022-12-25T19:40:18.682Z,10.48
2022-12-25T19:43:21.018Z,10.93
2022-12-25T19:46:27.766Z,10.05
2022-12-25T19:49:30.222Z,10.50
2022-12-25T19:52:32.808Z,9.57
2022-12-25T19:55:35.138Z,10.05
2022-12-25T19:58:37.542Z,9.45
2022-12-25T20:01:41.061Z,9.70
2022-12-25T20:04:43.418Z,9.40
2022-12-25T20:07:45.629Z,9.73
2022-12-25T20:10:47.936Z,10.20
2022-12-25T20:13:50.553Z,10.43
2022-12-25T20:16:52.953Z,9.05
2022-12-25T20:19:55.401Z,9.87
2022-12-25T20:22:57.576Z,9.52
2022-12-25T20:26:04.082Z,8.75
2022-12-25T20:29:06.934Z,8.85
2022-12-25T20:32:09.653Z,9.15
2022-12-25T20:35:18.124Z,8.43
2022-12-25T20:38:20.402Z,8.43
2022-12-25T20:41:27.837Z,8.70
2022-12-25T20:44:30.849Z,9.45
2022-12-25T20:47:34.025Z,8.70
2022-12-25T20:50:36.313Z,9.20
2022-12-25T20:53:38.559Z,8.77
2022-12-25T20:56:40.960Z,9.38
2022-12-25T20:59:43.685Z,9.45
2022-12-25T21:02:46.258Z,9.60
2022-12-25T21:05:53.108Z,10.13
2022-12-25T21:08:55.604Z,9.50
2022-12-25T21:11:57.911Z,8.95
2022-12-25T21:15:00.800Z,7.90
2022-12-25T21:18:03.875Z,8.80
2022-12-25T21:21:07.784Z,8.27
2022-12-25T21:24:10.497Z,8.68
2022-12-25T21:27:13.132Z,9.40
2022-12-25T21:30:16.046Z,9.63
2022-12-25T21:33:37.171Z,9.23
2022-12-25T21:36:41.367Z,9.47
2022-12-25T21:39:43.643Z,9.13
2022-12-25T21:42:46.095Z,9.80
2022-12-25T21:45:48.413Z,9.05
2022-12-25T21:48:50.867Z,8.73
2022-12-25T21:52:08.265Z,9.23
2022-12-25T21:55:10.551Z,8.27
2022-12-25T21:58:12.841Z,8.48
2022-12-25T22:01:18.260Z,8.48
2022-12-25T22:04:21.750Z,8.63
2022-12-25T22:07:23.908Z,8.43
2022-12-25T22:10:26.209Z,8.48
2022-12-25T22:13:47.214Z,7.97
2022-12-25T22:17:07.985Z,8.25
2022-12-25T22:20:12.083Z,8.27
2022-12-25T22:23:16.435Z,8.57
2022-12-25T22:26:20.988Z,7.97
2022-12-25T22:29:23.501Z,7.80
2022-12-25T22:32:26.160Z,8.18
2022-12-25T22:35:28.484Z,8.90
2022-12-25T22:38:30.788Z,8.77
2022-12-25T22:41:33.803Z,8.95
2022-12-25T22:44:36.537Z,8.80
2022-12-25T22:47:38.756Z,7.97
2022-12-25T22:50:41.054Z,8.57
2022-12-25T22:53:43.239Z,10.07
2022-12-25T22:56:46.653Z,10.75
2022-12-25T22:59:48.979Z,10.68
2022-12-25T23:02:51.960Z,10.38
2022-12-25T23:05:57.239Z,10.93
2022-12-25T23:08:59.552Z,11.60
2022-12-25T23:12:01.817Z,10.82
2022-12-25T23:15:05.673Z,11.75
2022-12-25T23:18:27.836Z,11.88
2022-12-25T23:21:48.845Z,11.77
2022-12-25T23:25:09.835Z,11.53
2022-12-25T23:28:12.157Z,11.48
2022-12-25T23:31:14.563Z,12.32
2022-12-25T23:34:16.903Z,12.68
2022-12-25T23:37:21.105Z,14.10
2022-12-25T23:40:23.341Z,13.23
2022-12-25T23:43:25.672Z,13.65
2022-12-25T23:46:28.061Z,13.68
2022-12-25T23:49:30.395Z,13.27
2022-12-25T23:52:32.598Z,13.43
2022-12-25T23:55:34.910Z,14.60
2022-12-25T23:58:37.394Z,13.45
